createdAt,value
2022-11-04T00:02:05.218Z,10.63
2022-11-04T00:04:31.688Z,10.61
2022-11-04T00:06:58.370Z,10.66
2022-11-04T00:09:27.543Z,10.63
2022-11-04T00:12:13.410Z,10.66
2022-11-04T00:14:39.831Z,10.80
2022-11-04T00:17:22.866Z,10.83
2022-11-04T00:20:10.640Z,10.91
2022-11-04T00:22:57.105Z,10.99
2022-11-04T00:25:42.347Z,11.10
2022-11-04T00:28:33.957Z,11.09
2022-11-04T00:31:22.119Z,11.47
2022-11-04T00:33:49.818Z,11.47
2022-11-04T00:36:16.719Z,11.43
2022-11-04T00:38:43.141Z,11.48
2022-11-04T00:41:26.291Z,11.51
2022-11-04T00:43:58.742Z,11.55
2022-11-04T00:46:26.019Z,11.50
2022-11-04T00:48:52.701Z,11.57
2022-11-04T00:51:19.749Z,11.49
2022-11-04T00:53:46.182Z,11.46
2022-11-04T00:56:12.753Z,11.24
2022-11-04T00:58:39.817Z,11.17
2022-11-04T01:01:10.665Z,11.21
2022-11-04T01:03:37.250Z,11.09
2022-11-04T01:06:04.554Z,10.99
2022-11-04T01:08:30.966Z,10.90
2022-11-04T01:11:01.638Z,10.79
2022-11-04T01:13:28.020Z,10.77
2022-11-04T01:15:54.406Z,10.72
2022-11-04T01:18:20.761Z,10.64
2022-11-04T01:20:47.158Z,10.60
2022-11-04T01:23:13.985Z,10.50
2022-11-04T01:25:41.814Z,9.97
2022-11-04T01:28:08.463Z,10.42
2022-11-04T01:30:35.133Z,10.39
2022-11-04T01:33:01.532Z,10.39
2022-11-04T01:35:27.914Z,10.40
2022-11-04T01:37:54.306Z,10.35
2022-11-04T01:40:20.672Z,10.53
2022-11-04T01:42:47.041Z,10.54
2022-11-04T01:45:16.052Z,10.47
2022-11-04T01:47:48.421Z,10.52
2022-11-04T01:50:20.624Z,10.61
2022-11-04T01:52:52.819Z,10.51
2022-11-04T01:55:23.637Z,10.62
2022-11-04T01:57:52.850Z,10.65
2022-11-04T02:00:19.313Z,10.65
2022-11-04T02:03:20.727Z,10.64
2022-11-04T02:05:48.276Z,10.65
2022-11-04T02:08:16.717Z,10.65
2022-11-04T02:10:50.880Z,10.75
2022-11-04T02:13:17.600Z,10.76
2022-11-04T02:16:08.497Z,10.84
2022-11-04T02:19:03.895Z,10.84
2022-11-04T02:21:35.686Z,10.85
2022-11-04T02:24:09.287Z,10.90
2022-11-04T02:26:50.658Z,10.99
2022-11-04T02:29:28.895Z,11.00
2022-11-04T02:32:09.700Z,11.03
2022-11-04T02:35:01.440Z,11.09
2022-11-04T02:38:06.309Z,11.06
2022-11-04T02:40:59.124Z,11.20
2022-11-04T02:43:45.965Z,11.23
2022-11-04T02:46:24.443Z,11.25
2022-11-04T02:48:57.425Z,11.33
2022-11-04T02:51:38.483Z,11.37
2022-11-04T02:54:18.036Z,11.35
2022-11-04T02:56:49.947Z,11.36
2022-11-04T02:59:37.133Z,11.46
2022-11-04T03:02:07.745Z,11.45
2022-11-04T03:04:41.600Z,11.40
2022-11-04T03:09:45.860Z,11.45
2022-11-04T03:12:16.903Z,11.46
2022-11-04T03:14:48.893Z,11.41
2022-11-04T03:17:29.824Z,11.46
2022-11-04T03:20:00.275Z,11.51
2022-11-04T03:22:36.053Z,11.42
2022-11-04T03:25:06.326Z,11.49
2022-11-04T03:27:50.878Z,11.51
2022-11-04T03:30:19.806Z,11.53
2022-11-04T03:33:11.150Z,11.51
2022-11-04T03:35:38.277Z,11.42
2022-11-04T03:38:04.747Z,11.44
2022-11-04T03:40:31.216Z,11.48
2022-11-04T03:43:27.843Z,11.49
2022-11-04T03:45:55.564Z,11.26
2022-11-04T03:48:23.610Z,11.06
2022-11-04T03:50:51.125Z,11.01
2022-11-04T03:53:22.585Z,10.90
2022-11-04T03:56:07.705Z,10.99
2022-11-04T03:58:51.722Z,10.96
2022-11-04T04:01:27.933Z,10.93
2022-11-04T04:04:08.584Z,10.90
2022-11-04T04:06:36.467Z,10.84
2022-11-04T04:09:39.963Z,10.82
2022-11-04T04:12:27.987Z,10.81
2022-11-04T04:15:07.273Z,10.71
2022-11-04T04:17:42.896Z,10.78
2022-11-04T04:20:15.149Z,10.78
2022-11-04T04:22:50.635Z,10.75
2022-11-04T04:25:36.735Z,10.72
2022-11-04T04:28:04.941Z,10.71
2022-11-04T04:30:31.686Z,10.70
2022-11-04T04:33:01.554Z,10.65
2022-11-04T04:35:42.174Z,10.55
2022-11-04T04:38:33.473Z,10.71
2022-11-04T04:41:24.725Z,10.65
2022-11-04T04:44:10.019Z,10.48
2022-11-04T04:46:38.681Z,10.59
2022-11-04T04:49:06.888Z,10.64
2022-11-04T04:51:36.323Z,10.60
2022-11-04T04:54:02.771Z,10.55
2022-11-04T04:56:29.237Z,10.60
2022-11-04T04:58:55.609Z,10.60
2022-11-04T05:01:22.143Z,10.63
2022-11-04T05:03:48.583Z,10.66
2022-11-04T05:06:14.961Z,10.54
2022-11-04T05:08:41.300Z,10.64
2022-11-04T05:11:07.790Z,10.60
2022-11-04T05:13:34.181Z,10.54
2022-11-04T05:16:05.818Z,10.44
2022-11-04T05:18:32.231Z,10.46
2022-11-04T05:20:58.617Z,10.51
2022-11-04T05:23:24.988Z,10.46
2022-11-04T05:25:51.444Z,10.42
2022-11-04T05:28:17.834Z,10.35
2022-11-04T05:30:44.373Z,10.40
2022-11-04T05:33:11.159Z,10.34
2022-11-04T05:35:37.833Z,10.30
2022-11-04T05:38:04.238Z,10.24
2022-11-04T05:40:30.672Z,10.27
2022-11-04T05:43:01.213Z,10.23
2022-11-04T05:45:28.857Z,10.22
2022-11-04T05:48:02.744Z,10.20
2022-11-04T05:50:30.708Z,10.23
2022-11-04T05:53:00.866Z,10.22
2022-11-04T05:55:27.700Z,10.22
2022-11-04T05:57:54.353Z,10.21
2022-11-04T06:00:20.865Z,10.16
2022-11-04T06:02:47.632Z,10.16
2022-11-04T06:05:14.083Z,10.22
2022-11-04T06:07:40.509Z,10.15
2022-11-04T06:10:07.355Z,10.08
2022-11-04T06:12:33.927Z,10.15
2022-11-04T06:15:00.335Z,9.98
2022-11-04T06:17:26.703Z,10.01
2022-11-04T06:19:53.145Z,10.04
2022-11-04T06:22:20.177Z,9.93
2022-11-04T06:24:46.819Z,9.85
2022-11-04T06:27:13.686Z,9.94
2022-11-04T06:29:41.247Z,9.92
2022-11-04T06:32:13.639Z,9.92
2022-11-04T06:34:40.425Z,9.88
2022-11-04T06:37:07.476Z,9.82
2022-11-04T06:39:34.320Z,9.92
2022-11-04T06:42:02.731Z,9.86
2022-11-04T06:44:29.620Z,9.92
2022-11-04T06:46:56.009Z,9.79
2022-11-04T06:49:23.290Z,9.87
2022-11-04T06:51:50.183Z,9.76
2022-11-04T06:54:17.558Z,9.82
2022-11-04T06:56:44.873Z,9.87
2022-11-04T06:59:16.992Z,9.90
2022-11-04T07:01:44.073Z,9.71
2022-11-04T07:04:10.602Z,9.84
2022-11-04T07:06:39.718Z,9.85
2022-11-04T07:09:11.716Z,9.74
2022-11-04T07:11:38.381Z,9.82
2022-11-04T07:14:04.976Z,9.83
2022-11-04T07:16:31.340Z,9.77
2022-11-04T07:18:57.721Z,9.80
2022-11-04T07:21:24.111Z,9.84
2022-11-04T07:23:50.677Z,9.80
2022-11-04T07:26:17.316Z,9.80
2022-11-04T07:28:43.808Z,9.78
2022-11-04T07:31:12.358Z,9.64
2022-11-04T07:33:38.899Z,9.72
2022-11-04T07:36:08.076Z,9.62
2022-11-04T07:38:34.896Z,9.82
2022-11-04T07:41:02.653Z,9.82
2022-11-04T07:43:29.966Z,9.66
2022-11-04T07:46:04.938Z,9.77
2022-11-04T07:48:31.535Z,9.82
2022-11-04T07:50:59.909Z,9.68
2022-11-04T07:53:27.960Z,9.74
2022-11-04T07:55:54.417Z,9.82
2022-11-04T07:58:22.011Z,9.95
2022-11-04T08:00:48.678Z,9.95
2022-11-04T08:03:15.786Z,9.98
2022-11-04T08:05:42.260Z,9.95
2022-11-04T08:08:08.625Z,9.92
2022-11-04T08:10:35.743Z,9.94
2022-11-04T08:13:02.138Z,9.97
2022-11-04T08:15:29.237Z,9.96
2022-11-04T08:17:55.650Z,9.85
2022-11-04T08:20:22.082Z,9.80
2022-11-04T08:22:48.455Z,9.91
2022-11-04T08:25:14.986Z,9.96
2022-11-04T08:27:41.376Z,9.97
2022-11-04T08:30:08.820Z,10.01
2022-11-04T08:32:35.402Z,9.94
2022-11-04T08:35:01.809Z,9.99
2022-11-04T08:37:28.234Z,10.17
2022-11-04T08:39:54.671Z,10.18
2022-11-04T08:42:21.050Z,10.27
2022-11-04T08:44:51.569Z,10.44
2022-11-04T08:47:18.269Z,10.37
2022-11-04T08:49:44.696Z,10.47
2022-11-04T08:52:11.109Z,10.55
2022-11-04T08:54:37.562Z,10.63
2022-11-04T08:57:04.443Z,10.71
2022-11-04T08:59:30.822Z,10.80
2022-11-04T09:01:57.278Z,10.80
2022-11-04T09:04:24.028Z,10.99
2022-11-04T09:06:52.111Z,11.05
2022-11-04T09:09:19.208Z,10.93
2022-11-04T09:11:46.456Z,10.83
2022-11-04T09:14:13.451Z,10.76
2022-11-04T09:16:41.685Z,11.06
2022-11-04T09:19:08.396Z,11.17
2022-11-04T09:21:35.062Z,11.42
2022-11-04T09:24:01.524Z,11.24
2022-11-04T09:26:28.237Z,11.50
2022-11-04T09:28:56.243Z,11.29
2022-11-04T09:31:23.792Z,11.47
2022-11-04T09:33:50.943Z,11.17
2022-11-04T09:36:17.593Z,11.34
2022-11-04T09:38:44.909Z,11.19
2022-11-04T09:41:48.684Z,11.19
2022-11-04T09:44:24.234Z,11.14
2022-11-04T09:46:54.850Z,10.93
2022-11-04T09:49:22.447Z,11.27
2022-11-04T09:51:55.179Z,11.31
2022-11-04T09:54:25.288Z,11.50
2022-11-04T09:56:55.201Z,11.10
2022-11-04T09:59:28.906Z,11.21
2022-11-04T10:01:58.340Z,11.14
2022-11-04T10:04:39.700Z,11.13
2022-11-04T10:07:16.797Z,11.13
2022-11-04T10:09:58.001Z,11.26
2022-11-04T10:12:42.372Z,11.70
2022-11-04T10:15:20.945Z,11.79
2022-11-04T10:18:07.719Z,12.11
2022-11-04T10:20:58.418Z,11.66
2022-11-04T10:23:36.013Z,11.45
2022-11-04T10:26:24.019Z,11.39
2022-11-04T10:28:58.183Z,11.56
2022-11-04T10:31:25.265Z,11.88
2022-11-04T10:34:04.127Z,12.01
2022-11-04T10:36:31.527Z,11.89
2022-11-04T10:38:58.944Z,12.27
2022-11-04T10:41:30.097Z,12.37
2022-11-04T10:44:03.170Z,12.68
2022-11-04T10:46:46.675Z,12.35
2022-11-04T10:50:22.050Z,12.26
2022-11-04T10:52:37.868Z,12.31
2022-11-04T10:55:30.000Z,12.17
2022-11-04T10:57:58.314Z,12.38
2022-11-04T11:00:40.079Z,12.72
2022-11-04T11:03:27.330Z,12.43
2022-11-04T11:06:09.480Z,11.97
2022-11-04T11:08:37.382Z,13.03
2022-11-04T11:11:08.743Z,12.72
2022-11-04T11:13:38.751Z,12.39
2022-11-04T11:16:19.828Z,12.42
2022-11-04T11:19:12.070Z,13.04
2022-11-04T11:21:49.935Z,12.73
2022-11-04T11:24:30.809Z,13.00
2022-11-04T11:27:00.563Z,12.80
2022-11-04T11:29:42.273Z,13.68
2022-11-04T11:32:30.966Z,13.88
2022-11-04T11:35:02.773Z,13.63
2022-11-04T11:37:32.068Z,13.35
2022-11-04T11:39:58.866Z,13.40
2022-11-04T11:42:26.679Z,12.82
2022-11-04T11:44:56.323Z,13.19
2022-11-04T11:47:25.379Z,13.26
2022-11-04T11:50:14.247Z,13.11
2022-11-04T11:52:42.296Z,13.05
2022-11-04T11:55:28.774Z,13.56
2022-11-04T12:01:19.345Z,13.95
2022-11-04T12:10:24.183Z,12.99
2022-11-04T12:13:28.215Z,13.32
2022-11-04T12:16:16.228Z,13.36
2022-11-04T12:19:09.793Z,13.22
2022-11-04T12:21:44.675Z,13.87
2022-11-04T12:24:24.395Z,14.56
2022-11-04T12:27:12.956Z,14.03
2022-11-04T12:30:06.640Z,14.19
2022-11-04T12:32:39.168Z,14.16
2022-11-04T12:35:05.595Z,13.84
2022-11-04T12:37:46.482Z,13.61
2022-11-04T12:40:27.162Z,13.66
2022-11-04T12:43:20.222Z,13.84
2022-11-04T12:45:55.286Z,13.66
2022-11-04T12:48:52.996Z,13.94
2022-11-04T12:51:54.218Z,14.38
2022-11-04T12:54:46.546Z,14.40
2022-11-04T12:57:17.162Z,15.36
2022-11-04T13:00:06.350Z,15.24
2022-11-04T13:02:42.838Z,15.18
2022-11-04T13:05:21.121Z,15.36
2022-11-04T13:08:00.462Z,15.53
2022-11-04T13:10:55.080Z,16.06
2022-11-04T13:13:28.744Z,15.14
2022-11-04T13:15:59.461Z,15.59
2022-11-04T13:18:30.324Z,15.60
2022-11-04T13:21:21.524Z,15.47
2022-11-04T13:23:58.359Z,15.12
2022-11-04T13:26:24.922Z,14.76
2022-11-04T13:29:11.237Z,14.81
2022-11-04T13:32:08.473Z,14.66
2022-11-04T13:34:57.695Z,14.46
2022-11-04T13:37:36.392Z,14.17
2022-11-04T13:40:12.543Z,14.71
2022-11-04T13:42:44.972Z,14.45
2022-11-04T13:45:15.434Z,13.89
2022-11-04T13:47:47.012Z,13.96
2022-11-04T13:50:33.636Z,13.90
2022-11-04T13:53:00.206Z,14.03
2022-11-04T13:55:26.760Z,13.81
2022-11-04T13:58:05.435Z,13.85
2022-11-04T14:00:33.665Z,14.10
2022-11-04T14:03:21.060Z,14.04
2022-11-04T14:06:08.572Z,14.09
2022-11-04T14:08:35.311Z,13.73
2022-11-04T14:11:08.161Z,13.91
2022-11-04T14:13:45.030Z,13.94
2022-11-04T14:16:17.904Z,13.47
2022-11-04T14:18:47.438Z,13.49
2022-11-04T14:21:17.795Z,13.59
2022-11-04T14:23:51.648Z,13.60
2022-11-04T14:26:20.823Z,13.48
2022-11-04T14:28:59.953Z,13.06
2022-11-04T14:31:38.184Z,13.02
2022-11-04T14:34:06.026Z,13.16
2022-11-04T14:36:35.619Z,13.04
2022-11-04T14:39:04.957Z,13.02
2022-11-04T14:41:40.434Z,13.02
2022-11-04T14:44:13.010Z,13.02
2022-11-04T14:46:45.396Z,13.15
2022-11-04T14:49:38.547Z,13.03
2022-11-04T14:52:22.217Z,12.90
2022-11-04T14:54:50.008Z,12.79
2022-11-04T14:57:19.317Z,12.72
2022-11-04T14:59:47.047Z,12.60
2022-11-04T15:02:28.510Z,12.51
2022-11-04T15:04:59.937Z,12.50
2022-11-04T15:07:34.079Z,12.55
2022-11-04T15:10:03.366Z,12.38
2022-11-04T15:12:48.213Z,12.32
2022-11-04T15:15:38.608Z,12.20
2022-11-04T15:18:09.163Z,12.19
2022-11-04T15:20:40.114Z,11.95
2022-11-04T15:23:14.283Z,12.11
2022-11-04T15:25:48.788Z,12.00
2022-11-04T15:28:21.742Z,11.83
2022-11-04T15:31:11.140Z,11.88
2022-11-04T15:33:41.805Z,11.84
2022-11-04T15:36:13.908Z,11.73
2022-11-04T15:38:44.439Z,11.67
2022-11-04T15:41:33.161Z,11.72
2022-11-04T15:44:02.306Z,11.53
2022-11-04T15:46:29.688Z,11.45
2022-11-04T15:49:05.038Z,11.43
2022-11-04T15:51:37.821Z,11.41
2022-11-04T15:54:15.332Z,11.37
2022-11-04T15:56:52.257Z,11.16
2022-11-04T15:59:23.176Z,11.05
2022-11-04T16:01:52.368Z,11.06
2022-11-04T16:04:22.412Z,10.81
2022-11-04T16:07:05.354Z,10.55
2022-11-04T16:09:44.140Z,10.46
2022-11-04T16:12:28.776Z,10.31
2022-11-04T16:14:57.221Z,10.33
2022-11-04T16:17:25.607Z,10.19
2022-11-04T16:19:55.810Z,10.34
2022-11-04T16:22:34.304Z,10.19
2022-11-04T16:25:04.914Z,9.99
2022-11-04T16:27:34.529Z,10.04
2022-11-04T16:30:16.481Z,9.87
2022-11-04T16:32:45.180Z,9.90
2022-11-04T16:35:23.861Z,9.97
2022-11-04T16:37:51.378Z,9.82
2022-11-04T16:40:19.745Z,9.76
2022-11-04T16:42:47.487Z,9.68
2022-11-04T16:45:25.978Z,9.62
2022-11-04T16:47:53.519Z,9.60
2022-11-04T16:50:20.575Z,9.52
2022-11-04T16:52:47.108Z,9.49
2022-11-04T16:55:14.777Z,9.53
2022-11-04T16:57:41.711Z,9.44
2022-11-04T17:00:09.187Z,9.45
2022-11-04T17:02:41.082Z,9.34
2022-11-04T17:05:08.702Z,9.26
2022-11-04T17:07:52.062Z,9.25
2022-11-04T17:10:26.747Z,9.12
2022-11-04T17:12:53.201Z,9.05
2022-11-04T17:15:19.633Z,8.98
2022-11-04T17:17:46.116Z,9.03
2022-11-04T17:20:17.700Z,8.90
2022-11-04T17:22:45.432Z,8.84
2022-11-04T17:25:17.076Z,8.85
2022-11-04T17:27:44.380Z,8.84
2022-11-04T17:30:12.999Z,8.83
2022-11-04T17:32:39.500Z,8.72
2022-11-04T17:35:06.532Z,8.75
2022-11-04T17:37:32.919Z,8.77
2022-11-04T17:39:59.326Z,8.48
2022-11-04T17:42:44.595Z,8.72
2022-11-04T17:45:11.032Z,8.73
2022-11-04T17:47:38.203Z,8.63
2022-11-04T17:50:06.886Z,8.62
2022-11-04T17:52:34.431Z,8.64
2022-11-04T17:55:00.837Z,8.55
2022-11-04T17:57:27.263Z,8.43
2022-11-04T17:59:53.961Z,8.56
2022-11-04T18:02:20.534Z,8.60
2022-11-04T18:04:46.959Z,8.64
2022-11-04T18:07:13.375Z,8.62
2022-11-04T18:09:39.804Z,8.67
2022-11-04T18:12:25.461Z,8.63
2022-11-04T18:14:51.847Z,8.69
2022-11-04T18:17:18.345Z,8.72
2022-11-04T18:19:44.716Z,8.54
2022-11-04T18:22:11.127Z,8.58
2022-11-04T18:24:37.659Z,8.80
2022-11-04T18:27:04.104Z,8.77
2022-11-04T18:29:30.528Z,8.99
2022-11-04T18:31:56.992Z,9.00
2022-11-04T18:34:23.375Z,9.00
2022-11-04T18:36:49.816Z,8.89
2022-11-04T18:39:18.126Z,9.13
2022-11-04T18:41:45.759Z,9.11
2022-11-04T18:44:16.212Z,9.21
2022-11-04T18:46:43.536Z,9.20
2022-11-04T18:49:10.729Z,9.04
2022-11-04T18:51:37.527Z,9.18
2022-11-04T18:54:05.357Z,9.08
2022-11-04T18:56:32.530Z,8.98
2022-11-04T18:58:59.209Z,9.14
2022-11-04T19:01:31.754Z,9.18
2022-11-04T19:03:58.830Z,9.22
2022-11-04T19:06:33.739Z,9.11
2022-11-04T19:09:32.080Z,9.21
2022-11-04T19:12:12.613Z,9.34
2022-11-04T19:14:39.075Z,9.37
2022-11-04T19:17:05.440Z,9.41
2022-11-04T19:19:31.819Z,9.28
2022-11-04T19:21:58.258Z,9.05
2022-11-04T19:24:25.464Z,9.27
2022-11-04T19:26:51.833Z,9.27
2022-11-04T19:29:18.194Z,9.16
2022-11-04T19:31:45.104Z,9.22
2022-11-04T19:34:11.519Z,9.12
2022-11-04T19:36:38.218Z,9.16
2022-11-04T19:39:05.226Z,9.35
2022-11-04T19:41:50.670Z,9.44
2022-11-04T19:44:18.556Z,9.45
2022-11-04T19:46:45.579Z,9.50
2022-11-04T19:49:12.663Z,9.40
2022-11-04T19:51:39.688Z,9.25
2022-11-04T19:54:06.310Z,9.26
2022-11-04T19:56:33.667Z,9.23
2022-11-04T19:59:05.599Z,9.28
2022-11-04T20:01:34.406Z,9.25
2022-11-04T20:04:02.731Z,9.32
2022-11-04T20:06:32.169Z,9.26
2022-11-04T20:09:01.896Z,9.24
2022-11-04T20:11:28.459Z,9.08
2022-11-04T20:13:55.018Z,9.19
2022-11-04T20:16:27.769Z,8.86
2022-11-04T20:18:56.888Z,8.87
2022-11-04T20:21:25.505Z,8.76
2022-11-04T20:23:56.248Z,8.85
2022-11-04T20:26:24.201Z,8.72
2022-11-04T20:28:54.361Z,8.65
2022-11-04T20:31:23.773Z,8.72
2022-11-04T20:33:51.317Z,8.63
2022-11-04T20:36:19.753Z,8.72
2022-11-04T20:38:47.383Z,8.88
2022-11-04T20:41:18.636Z,8.89
2022-11-04T20:43:46.854Z,8.97
2022-11-04T20:46:15.947Z,9.01
2022-11-04T20:48:42.415Z,9.01
2022-11-04T20:51:19.976Z,9.22
2022-11-04T20:53:47.366Z,9.22
2022-11-04T20:56:19.451Z,9.02
2022-11-04T20:58:48.424Z,9.19
2022-11-04T21:01:21.286Z,8.92
2022-11-04T21:03:47.775Z,8.74
2022-11-04T21:06:14.232Z,8.81
2022-11-04T21:08:40.599Z,8.95
2022-11-04T21:11:07.600Z,9.02
2022-11-04T21:13:34.324Z,8.97
2022-11-04T21:16:02.016Z,8.98
2022-11-04T21:18:28.425Z,8.91
2022-11-04T21:20:55.052Z,8.96
2022-11-04T21:23:21.592Z,8.91
2022-11-04T21:25:55.614Z,9.01
2022-11-04T21:28:22.634Z,9.13
2022-11-04T21:30:51.447Z,9.05
2022-11-04T21:33:18.108Z,8.94
2022-11-04T21:35:45.547Z,9.01
2022-11-04T21:38:15.338Z,9.22
2022-11-04T21:40:42.863Z,9.17
2022-11-04T21:43:10.247Z,9.12
2022-11-04T21:45:36.833Z,9.11
2022-11-04T21:48:04.879Z,9.03
2022-11-04T21:50:31.540Z,9.09
2022-11-04T21:52:58.375Z,9.31
2022-11-04T21:55:25.007Z,9.35
2022-11-04T21:57:51.454Z,9.28
2022-11-04T22:00:17.896Z,9.00
2022-11-04T22:02:44.598Z,8.79
2022-11-04T22:05:11.829Z,8.88
2022-11-04T22:07:57.876Z,8.95
2022-11-04T22:10:26.035Z,9.02
2022-11-04T22:12:52.829Z,9.19
2022-11-04T22:15:39.676Z,9.29
2022-11-04T22:18:06.773Z,9.33
2022-11-04T22:20:36.072Z,9.23
2022-11-04T22:23:02.776Z,9.21
2022-11-04T22:25:30.474Z,9.33
2022-11-04T22:27:56.894Z,9.33
2022-11-04T22:30:23.347Z,9.31
2022-11-04T22:32:49.750Z,9.35
2022-11-04T22:35:16.197Z,9.40
2022-11-04T22:37:43.124Z,9.31
2022-11-04T22:40:09.930Z,9.23
2022-11-04T22:42:36.316Z,9.18
2022-11-04T22:45:02.969Z,9.25
2022-11-04T22:47:29.372Z,9.26
2022-11-04T22:49:55.733Z,9.34
2022-11-04T22:52:22.121Z,9.34
2022-11-04T22:54:48.587Z,9.28
2022-11-04T22:57:14.975Z,9.32
2022-11-04T22:59:41.362Z,9.33
2022-11-04T23:02:07.914Z,9.21
2022-11-04T23:04:34.542Z,9.09
2022-11-04T23:07:00.911Z,8.89
2022-11-04T23:09:27.309Z,9.13
2022-11-04T23:12:12.584Z,9.14
2022-11-04T23:14:57.706Z,9.28
2022-11-04T23:17:43.026Z,9.19
2022-11-04T23:20:13.113Z,8.97
2022-11-04T23:22:58.320Z,9.20
2022-11-04T23:25:25.498Z,9.02
2022-11-04T23:28:13.567Z,9.06
2022-11-04T23:30:45.416Z,9.23
2022-11-04T23:33:14.555Z,9.05
2022-11-04T23:36:05.913Z,8.93
2022-11-04T23:38:33.173Z,9.21
2022-11-04T23:41:24.145Z,9.27
2022-11-04T23:43:50.540Z,9.14
2022-11-04T23:46:41.145Z,9.04
2022-11-04T23:49:13.284Z,9.28
2022-11-04T23:51:58.584Z,9.27
2022-11-04T23:54:43.797Z,9.18
2022-11-04T23:57:38.201Z,8.89
